»·PEaware :: N973SE KSBP-KIZA

N973SE :: KSBP-KIZA

FLIGHT INFORMATION

Flight Status: Arrived
Operator: Privately registered:
United States
More flights under this callsign
Pilot: Stig E. (4778)
Aircraft: PIPER PA-28R-201 ARROW
(P28R)
More flights by this aircraft type
Origin: KSBP San Luis Co Regl
United States
Destination: KIZA Santa Ynez
United States
More flights between these airports :: More routes between these airports
Route:
File this flight plan on PilotEdge
Remarks:
Altitude:
(Current/Filed)
2,500ft
Speed:
(Current/Filed)
120kts
Departed: 18-Mar-18 02:26 AM
Arrived: 18-Mar-18 02:53 AM
Distance/Time
Traveled:
47nm/0:26
Distance/Time
To Go:
Arrived

Flight Plot

Page will automatically refresh every two minutes.


Map Options




Map Legend


Flown Route
Filed Route
Departure Airport
Arrival Airport
Navaid (VOR, NDB)
Fix

Horizontal Profiles

Position Reports

Time Latitude Longitude Heading Altitude Ground
Speed
18-Mar-18 02:00 35.233273 -120.631919 244 212ft 0kts
18-Mar-18 02:01 35.233273 -120.631919 244 212ft 0kts
18-Mar-18 02:02 35.233273 -120.631919 244 212ft 0kts
18-Mar-18 02:03 35.233273 -120.631919 244 212ft 0kts
18-Mar-18 02:04 35.233273 -120.631919 244 212ft 0kts
18-Mar-18 02:05 35.233273 -120.631919 244 212ft 0kts
18-Mar-18 02:06 35.233273 -120.631919 244 212ft 0kts
18-Mar-18 02:07 35.233273 -120.631919 244 212ft 0kts
18-Mar-18 02:08 35.233273 -120.631919 244 212ft 0kts
18-Mar-18 02:09 35.233273 -120.631919 244 212ft 0kts
18-Mar-18 02:10 35.233273 -120.631919 244 212ft 0kts
18-Mar-18 02:11 35.233273 -120.631919 244 212ft 0kts
18-Mar-18 02:12 35.233273 -120.631919 244 212ft 0kts
18-Mar-18 02:13 35.233273 -120.631919 244 212ft 0kts
18-Mar-18 02:14 35.233273 -120.631919 244 212ft 0kts
18-Mar-18 02:15 35.233273 -120.631919 244 212ft 0kts
18-Mar-18 02:16 35.233273 -120.631919 244 212ft 0kts
18-Mar-18 02:17 35.233273 -120.631919 244 212ft 0kts
18-Mar-18 02:18 35.233273 -120.631919 244 212ft 0kts
18-Mar-18 02:19 35.233273 -120.631919 244 212ft 0kts
18-Mar-18 02:20 35.233273 -120.631919 244 212ft 0kts
18-Mar-18 02:21 35.233273 -120.631919 244 212ft 0kts
18-Mar-18 02:22 35.233264 -120.631938 238 211ft 1kts
18-Mar-18 02:23 35.233120 -120.632113 235 211ft 0kts
18-Mar-18 02:24 35.233012 -120.632301 233 211ft 4kts
18-Mar-18 02:25 35.239362 -120.644411 303 437ft 94kts
18-Mar-18 02:26 35.241901 -120.672693 214 1292ft 109kts
18-Mar-18 02:27 35.220562 -120.662455 118 1974ft 115kts
18-Mar-18 02:28 35.204930 -120.628151 118 2521ft 118kts
18-Mar-18 02:29 35.187513 -120.590069 118 2518ft 132kts
18-Mar-18 02:30 35.169566 -120.550804 118 2518ft 132kts
18-Mar-18 02:31 35.151604 -120.511498 118 2518ft 132kts
18-Mar-18 02:32 35.126647 -120.481942 152 2517ft 123kts
18-Mar-18 02:33 35.096419 -120.463084 152 2518ft 121kts
18-Mar-18 02:34 35.066381 -120.444336 152 2518ft 121kts
18-Mar-18 02:35 35.036383 -120.425613 152 2518ft 121kts
18-Mar-18 02:36 35.006561 -120.406249 149 2518ft 121kts
18-Mar-18 02:37 34.977220 -120.386026 150 2518ft 120kts
18-Mar-18 02:38 34.948495 -120.366611 150 2545ft 119kts
18-Mar-18 02:39 34.919595 -120.347303 151 2545ft 119kts
18-Mar-18 02:40 34.890323 -120.328157 151 2545ft 120kts
18-Mar-18 02:41 34.860979 -120.308832 151 2543ft 120kts
18-Mar-18 02:42 34.831622 -120.289442 151 2539ft 120kts
18-Mar-18 02:43 34.802287 -120.270049 151 2534ft 120kts
18-Mar-18 02:44 34.772869 -120.250600 151 2528ft 120kts
18-Mar-18 02:45 34.743502 -120.231194 151 2522ft 120kts
18-Mar-18 02:46 34.714221 -120.211860 151 2518ft 120kts
18-Mar-18 02:47 34.684913 -120.192305 150 2518ft 120kts
18-Mar-18 02:48 34.655800 -120.172655 150 2518ft 120kts
18-Mar-18 02:49 34.626542 -120.154132 160 2224ft 115kts
18-Mar-18 02:50 34.612739 -120.124491 98 1156ft 99kts
18-Mar-18 02:51 34.609488 -120.097284 99 808ft 74kts
18-Mar-18 02:52 34.606745 -120.074869 98 659ft 34kts
18-Mar-18 02:53 34.608029 -120.074496 306 659ft 10kts
18-Mar-18 02:54 34.607479 -120.075180 190 658ft 0kts
18-Mar-18 02:55 34.607479 -120.075180 190 658ft 0kts
18-Mar-18 02:56 34.607479 -120.075180 190 658ft 0kts
18-Mar-18 02:57 34.607479 -120.075180 190 658ft 0kts
18-Mar-18 02:58 34.607479 -120.075180 190 658ft 0kts
18-Mar-18 02:59 34.607479 -120.075180 190 658ft 0kts
18-Mar-18 03:00 34.607479 -120.075180 190 658ft 0kts
18-Mar-18 03:01 34.607479 -120.075180 190 658ft 0kts
18-Mar-18 03:02 34.607479 -120.075180 190 658ft 0kts

Navigation Log

Ident Type
Flight plan parsing failed, navigation log unavailable